sensor_id;sensor_type;location;lat;lon;timestamp;temperature;humidity
2489;DHT22;1255;48.716;9.124;2023-05-07T00:00:40;12.10;99.90
2489;DHT22;1255;48.716;9.124;2023-05-07T00:03:07;12.00;99.90
2489;DHT22;1255;48.716;9.124;2023-05-07T00:05:34;12.00;99.90
2489;DHT22;1255;48.716;9.124;2023-05-07T00:08:01;12.00;99.90
2489;DHT22;1255;48.716;9.124;2023-05-07T00:10:28;12.00;99.90
2489;DHT22;1255;48.716;9.124;2023-05-07T00:12:54;12.00;99.90
2489;DHT22;1255;48.716;9.124;2023-05-07T00:15:22;11.90;99.90
2489;DHT22;1255;48.716;9.124;2023-05-07T00:17:49;11.90;99.90
2489;DHT22;1255;48.716;9.124;2023-05-07T00:20:16;11.90;99.90
2489;DHT22;1255;48.716;9.124;2023-05-07T00:22:42;12.00;99.90
2489;DHT22;1255;48.716;9.124;2023-05-07T00:25:09;11.90;99.90
2489;DHT22;1255;48.716;9.124;2023-05-07T00:27:36;11.90;99.90
2489;DHT22;1255;48.716;9.124;2023-05-07T00:30:03;11.90;99.90
2489;DHT22;1255;48.716;9.124;2023-05-07T00:32:32;11.90;99.90
2489;DHT22;1255;48.716;9.124;2023-05-07T00:34:58;11.90;99.90
2489;DHT22;1255;48.716;9.124;2023-05-07T00:37:25;11.90;99.90
2489;DHT22;1255;48.716;9.124;2023-05-07T00:39:52;11.90;99.90
2489;DHT22;1255;48.716;9.124;2023-05-07T00:42:18;11.90;99.90
2489;DHT22;1255;48.716;9.124;2023-05-07T00:44:46;11.90;99.90
2489;DHT22;1255;48.716;9.124;2023-05-07T00:47:13;11.90;99.90
2489;DHT22;1255;48.716;9.124;2023-05-07T00:49:43;11.90;99.90
2489;DHT22;1255;48.716;9.124;2023-05-07T00:52:13;11.90;99.90
2489;DHT22;1255;48.716;9.124;2023-05-07T00:54:41;11.90;99.90
2489;DHT22;1255;48.716;9.124;2023-05-07T00:57:09;11.90;99.90
2489;DHT22;1255;48.716;9.124;2023-05-07T00:59:36;11.90;99.90
2489;DHT22;1255;48.716;9.124;2023-05-07T01:02:03;11.90;99.90
2489;DHT22;1255;48.716;9.124;2023-05-07T01:04:30;11.90;99.90
2489;DHT22;1255;48.716;9.124;2023-05-07T01:06:59;11.90;99.90
2489;DHT22;1255;48.716;9.124;2023-05-07T01:09:27;11.80;99.90
2489;DHT22;1255;48.716;9.124;2023-05-07T01:11:55;11.80;99.90
2489;DHT22;1255;48.716;9.124;2023-05-07T01:14:23;11.80;99.90
2489;DHT22;1255;48.716;9.124;2023-05-07T01:16:51;11.80;99.90
2489;DHT22;1255;48.716;9.124;2023-05-07T01:19:19;11.80;99.90
2489;DHT22;1255;48.716;9.124;2023-05-07T01:21:47;11.80;99.90
2489;DHT22;1255;48.716;9.124;2023-05-07T01:24:16;11.80;99.90
2489;DHT22;1255;48.716;9.124;2023-05-07T01:26:43;11.80;99.90
2489;DHT22;1255;48.716;9.124;2023-05-07T01:29:10;11.70;99.90
2489;DHT22;1255;48.716;9.124;2023-05-07T01:31:37;11.70;99.90
2489;DHT22;1255;48.716;9.124;2023-05-07T01:34:05;11.70;99.90
2489;DHT22;1255;48.716;9.124;2023-05-07T01:36:34;11.70;99.90
2489;DHT22;1255;48.716;9.124;2023-05-07T01:39:01;11.70;99.90
2489;DHT22;1255;48.716;9.124;2023-05-07T01:41:31;11.70;99.90
2489;DHT22;1255;48.716;9.124;2023-05-07T01:43:58;11.60;99.90
2489;DHT22;1255;48.716;9.124;2023-05-07T01:46:26;11.60;99.90
2489;DHT22;1255;48.716;9.124;2023-05-07T01:48:53;11.60;99.90
2489;DHT22;1255;48.716;9.124;2023-05-07T01:51:19;11.60;99.90
2489;DHT22;1255;48.716;9.124;2023-05-07T01:53:47;11.60;99.90
2489;DHT22;1255;48.716;9.124;2023-05-07T01:56:16;11.60;99.90
2489;DHT22;1255;48.716;9.124;2023-05-07T01:58:44;11.60;99.90
2489;DHT22;1255;48.716;9.124;2023-05-07T02:01:11;11.60;99.90
2489;DHT22;1255;48.716;9.124;2023-05-07T02:03:38;11.60;99.90
2489;DHT22;1255;48.716;9.124;2023-05-07T02:06:05;11.60;99.90
2489;DHT22;1255;48.716;9.124;2023-05-07T02:08:31;11.60;99.90
2489;DHT22;1255;48.716;9.124;2023-05-07T02:10:58;11.50;99.90
2489;DHT22;1255;48.716;9.124;2023-05-07T02:13:26;11.50;99.90
2489;DHT22;1255;48.716;9.124;2023-05-07T02:15:54;11.50;99.90
2489;DHT22;1255;48.716;9.124;2023-05-07T02:18:21;11.50;99.90
2489;DHT22;1255;48.716;9.124;2023-05-07T02:20:47;11.50;99.90
2489;DHT22;1255;48.716;9.124;2023-05-07T02:23:14;11.50;99.90
2489;DHT22;1255;48.716;9.124;2023-05-07T02:25:40;11.50;99.90
2489;DHT22;1255;48.716;9.124;2023-05-07T02:28:07;11.50;99.90
2489;DHT22;1255;48.716;9.124;2023-05-07T02:30:34;11.40;99.90
2489;DHT22;1255;48.716;9.124;2023-05-07T02:33:02;11.40;99.90
2489;DHT22;1255;48.716;9.124;2023-05-07T02:35:29;11.40;99.90
2489;DHT22;1255;48.716;9.124;2023-05-07T02:37:55;11.40;99.90
2489;DHT22;1255;48.716;9.124;2023-05-07T02:40:22;11.30;99.90
2489;DHT22;1255;48.716;9.124;2023-05-07T02:42:49;11.30;99.90
2489;DHT22;1255;48.716;9.124;2023-05-07T02:45:16;11.30;99.90
2489;DHT22;1255;48.716;9.124;2023-05-07T02:47:42;11.30;99.90
2489;DHT22;1255;48.716;9.124;2023-05-07T02:50:10;11.30;99.90
2489;DHT22;1255;48.716;9.124;2023-05-07T02:52:37;11.30;99.90
2489;DHT22;1255;48.716;9.124;2023-05-07T02:55:05;11.20;99.90
2489;DHT22;1255;48.716;9.124;2023-05-07T02:57:32;11.20;99.90
2489;DHT22;1255;48.716;9.124;2023-05-07T02:59:59;11.20;99.90
2489;DHT22;1255;48.716;9.124;2023-05-07T03:02:25;11.30;99.90
2489;DHT22;1255;48.716;9.124;2023-05-07T03:04:52;11.30;99.90
2489;DHT22;1255;48.716;9.124;2023-05-07T03:07:20;11.30;99.90
2489;DHT22;1255;48.716;9.124;2023-05-07T03:09:46;11.30;99.90
2489;DHT22;1255;48.716;9.124;2023-05-07T03:12:13;11.20;99.90
2489;DHT22;1255;48.716;9.124;2023-05-07T03:14:40;11.20;99.90
2489;DHT22;1255;48.716;9.124;2023-05-07T03:17:06;11.10;99.90
2489;DHT22;1255;48.716;9.124;2023-05-07T03:19:33;11.10;99.90
2489;DHT22;1255;48.716;9.124;2023-05-07T03:22:00;11.10;99.90
2489;DHT22;1255;48.716;9.124;2023-05-07T03:24:28;11.00;99.90
2489;DHT22;1255;48.716;9.124;2023-05-07T03:26:54;10.90;99.90
2489;DHT22;1255;48.716;9.124;2023-05-07T03:29:23;10.90;99.90
2489;DHT22;1255;48.716;9.124;2023-05-07T03:31:49;10.90;99.90
2489;DHT22;1255;48.716;9.124;2023-05-07T03:34:16;10.90;99.90
2489;DHT22;1255;48.716;9.124;2023-05-07T03:36:47;10.80;99.90
2489;DHT22;1255;48.716;9.124;2023-05-07T03:39:14;10.80;99.90
2489;DHT22;1255;48.716;9.124;2023-05-07T03:41:42;10.80;99.90
2489;DHT22;1255;48.716;9.124;2023-05-07T03:44:08;10.80;99.90
2489;DHT22;1255;48.716;9.124;2023-05-07T03:46:35;10.80;99.90
2489;DHT22;1255;48.716;9.124;2023-05-07T03:49:02;10.70;99.90
2489;DHT22;1255;48.716;9.124;2023-05-07T03:51:28;10.70;99.90
2489;DHT22;1255;48.716;9.124;2023-05-07T03:53:55;10.70;99.90
2489;DHT22;1255;48.716;9.124;2023-05-07T03:56:23;10.70;99.90
2489;DHT22;1255;48.716;9.124;2023-05-07T03:58:53;10.60;99.90
2489;DHT22;1255;48.716;9.124;2023-05-07T04:01:19;10.60;99.90
2489;DHT22;1255;48.716;9.124;2023-05-07T04:03:46;10.60;99.90
2489;DHT22;1255;48.716;9.124;2023-05-07T04:06:13;10.60;99.90
2489;DHT22;1255;48.716;9.124;2023-05-07T04:08:40;10.60;99.90
2489;DHT22;1255;48.716;9.124;2023-05-07T04:11:06;10.50;99.90
2489;DHT22;1255;48.716;9.124;2023-05-07T04:13:33;10.60;99.90
2489;DHT22;1255;48.716;9.124;2023-05-07T04:16:02;10.50;99.90
2489;DHT22;1255;48.716;9.124;2023-05-07T04:18:29;10.50;99.90
2489;DHT22;1255;48.716;9.124;2023-05-07T04:20:56;10.50;99.90
2489;DHT22;1255;48.716;9.124;2023-05-07T04:23:22;10.50;99.90
2489;DHT22;1255;48.716;9.124;2023-05-07T04:25:50;10.50;99.90
2489;DHT22;1255;48.716;9.124;2023-05-07T04:28:18;10.50;99.90
2489;DHT22;1255;48.716;9.124;2023-05-07T04:30:44;10.50;99.90
2489;DHT22;1255;48.716;9.124;2023-05-07T04:33:13;10.60;99.90
2489;DHT22;1255;48.716;9.124;2023-05-07T04:35:41;10.60;99.90
2489;DHT22;1255;48.716;9.124;2023-05-07T04:38:08;10.60;99.90
2489;DHT22;1255;48.716;9.124;2023-05-07T04:40:35;10.60;99.90
2489;DHT22;1255;48.716;9.124;2023-05-07T04:43:02;10.60;99.90
2489;DHT22;1255;48.716;9.124;2023-05-07T04:45:29;10.60;99.90
2489;DHT22;1255;48.716;9.124;2023-05-07T04:47:56;10.60;99.90
2489;DHT22;1255;48.716;9.124;2023-05-07T04:50:24;10.60;99.90
2489;DHT22;1255;48.716;9.124;2023-05-07T04:52:51;10.60;99.90
2489;DHT22;1255;48.716;9.124;2023-05-07T04:55:18;10.60;99.90
2489;DHT22;1255;48.716;9.124;2023-05-07T04:57:44;10.70;99.90
2489;DHT22;1255;48.716;9.124;2023-05-07T05:00:12;10.80;99.90
2489;DHT22;1255;48.716;9.124;2023-05-07T05:02:39;10.70;99.90
2489;DHT22;1255;48.716;9.124;2023-05-07T05:05:07;10.80;99.90
2489;DHT22;1255;48.716;9.124;2023-05-07T05:10:13;10.80;99.90
2489;DHT22;1255;48.716;9.124;2023-05-07T05:12:39;10.80;99.90
2489;DHT22;1255;48.716;9.124;2023-05-07T05:15:07;10.90;99.90
2489;DHT22;1255;48.716;9.124;2023-05-07T05:17:35;10.90;99.90
2489;DHT22;1255;48.716;9.124;2023-05-07T05:20:03;11.00;99.90
2489;DHT22;1255;48.716;9.124;2023-05-07T05:22:29;11.00;99.90
2489;DHT22;1255;48.716;9.124;2023-05-07T05:24:57;11.10;99.90
2489;DHT22;1255;48.716;9.124;2023-05-07T05:27:25;11.30;99.90
2489;DHT22;1255;48.716;9.124;2023-05-07T05:29:52;11.40;99.90
2489;DHT22;1255;48.716;9.124;2023-05-07T05:32:18;11.50;99.90
2489;DHT22;1255;48.716;9.124;2023-05-07T05:34:45;11.70;99.90
2489;DHT22;1255;48.716;9.124;2023-05-07T05:37:12;11.90;99.90
2489;DHT22;1255;48.716;9.124;2023-05-07T05:39:38;12.00;99.90
2489;DHT22;1255;48.716;9.124;2023-05-07T05:42:05;12.20;99.90
2489;DHT22;1255;48.716;9.124;2023-05-07T05:44:33;12.40;99.90
2489;DHT22;1255;48.716;9.124;2023-05-07T05:47:00;12.50;99.90
2489;DHT22;1255;48.716;9.124;2023-05-07T05:49:26;12.70;99.90
2489;DHT22;1255;48.716;9.124;2023-05-07T05:51:53;12.90;99.90
2489;DHT22;1255;48.716;9.124;2023-05-07T05:54:21;13.10;99.90
2489;DHT22;1255;48.716;9.124;2023-05-07T05:56:47;13.30;99.90
2489;DHT22;1255;48.716;9.124;2023-05-07T05:59:15;13.50;99.90
2489;DHT22;1255;48.716;9.124;2023-05-07T06:01:43;13.70;99.90
2489;DHT22;1255;48.716;9.124;2023-05-07T06:04:09;13.90;99.90
2489;DHT22;1255;48.716;9.124;2023-05-07T06:06:36;14.00;99.90
2489;DHT22;1255;48.716;9.124;2023-05-07T06:09:03;14.20;99.90
2489;DHT22;1255;48.716;9.124;2023-05-07T06:11:29;14.40;99.90
2489;DHT22;1255;48.716;9.124;2023-05-07T06:13:57;14.50;99.90
2489;DHT22;1255;48.716;9.124;2023-05-07T06:16:24;14.60;99.90
2489;DHT22;1255;48.716;9.124;2023-05-07T06:18:52;14.60;99.90
2489;DHT22;1255;48.716;9.124;2023-05-07T06:21:19;14.70;99.90
2489;DHT22;1255;48.716;9.124;2023-05-07T06:23:46;14.80;99.90
2489;DHT22;1255;48.716;9.124;2023-05-07T06:26:12;15.00;99.90
2489;DHT22;1255;48.716;9.124;2023-05-07T06:28:39;15.10;99.90
2489;DHT22;1255;48.716;9.124;2023-05-07T06:31:13;15.20;99.90
2489;DHT22;1255;48.716;9.124;2023-05-07T06:33:41;15.30;99.90
2489;DHT22;1255;48.716;9.124;2023-05-07T06:36:09;15.40;99.90
2489;DHT22;1255;48.716;9.124;2023-05-07T06:38:36;15.40;99.90
2489;DHT22;1255;48.716;9.124;2023-05-07T06:41:02;15.30;99.90
2489;DHT22;1255;48.716;9.124;2023-05-07T06:43:29;15.30;99.90
2489;DHT22;1255;48.716;9.124;2023-05-07T06:45:56;15.30;99.90
2489;DHT22;1255;48.716;9.124;2023-05-07T06:48:22;15.40;99.90
2489;DHT22;1255;48.716;9.124;2023-05-07T06:50:50;15.50;99.90
2489;DHT22;1255;48.716;9.124;2023-05-07T06:53:18;15.60;99.90
2489;DHT22;1255;48.716;9.124;2023-05-07T06:55:44;15.70;99.90
2489;DHT22;1255;48.716;9.124;2023-05-07T06:58:11;15.90;99.90
2489;DHT22;1255;48.716;9.124;2023-05-07T07:00:38;16.00;99.90
2489;DHT22;1255;48.716;9.124;2023-05-07T07:03:06;16.20;99.90
2489;DHT22;1255;48.716;9.124;2023-05-07T07:05:32;16.40;99.90
2489;DHT22;1255;48.716;9.124;2023-05-07T07:07:59;16.50;99.90
2489;DHT22;1255;48.716;9.124;2023-05-07T07:10:27;16.70;99.90
2489;DHT22;1255;48.716;9.124;2023-05-07T07:12:54;16.80;99.90
2489;DHT22;1255;48.716;9.124;2023-05-07T07:15:21;17.00;99.90
2489;DHT22;1255;48.716;9.124;2023-05-07T07:17:48;17.10;99.90
2489;DHT22;1255;48.716;9.124;2023-05-07T07:20:15;17.20;99.90
2489;DHT22;1255;48.716;9.124;2023-05-07T07:22:41;17.30;99.90
2489;DHT22;1255;48.716;9.124;2023-05-07T07:25:09;17.50;99.90
2489;DHT22;1255;48.716;9.124;2023-05-07T07:27:37;17.70;99.90
2489;DHT22;1255;48.716;9.124;2023-05-07T07:30:06;17.80;99.90
2489;DHT22;1255;48.716;9.124;2023-05-07T07:32:33;18.00;99.90
2489;DHT22;1255;48.716;9.124;2023-05-07T07:35:00;18.20;99.90
2489;DHT22;1255;48.716;9.124;2023-05-07T07:37:27;18.40;99.90
2489;DHT22;1255;48.716;9.124;2023-05-07T07:39:55;18.50;99.90
2489;DHT22;1255;48.716;9.124;2023-05-07T07:42:21;18.60;99.90
2489;DHT22;1255;48.716;9.124;2023-05-07T07:44:49;18.70;99.90
2489;DHT22;1255;48.716;9.124;2023-05-07T07:47:16;18.90;99.90
2489;DHT22;1255;48.716;9.124;2023-05-07T07:49:43;19.00;99.90
2489;DHT22;1255;48.716;9.124;2023-05-07T07:52:10;19.20;99.90
2489;DHT22;1255;48.716;9.124;2023-05-07T07:54:36;19.30;99.90
2489;DHT22;1255;48.716;9.124;2023-05-07T07:57:03;19.40;99.90
2489;DHT22;1255;48.716;9.124;2023-05-07T07:59:30;19.50;99.90
2489;DHT22;1255;48.716;9.124;2023-05-07T08:01:58;19.50;99.90
2489;DHT22;1255;48.716;9.124;2023-05-07T08:04:24;19.70;99.90
2489;DHT22;1255;48.716;9.124;2023-05-07T08:06:51;19.80;99.90
2489;DHT22;1255;48.716;9.124;2023-05-07T08:09:19;19.80;99.90
2489;DHT22;1255;48.716;9.124;2023-05-07T08:11:46;19.90;99.90
2489;DHT22;1255;48.716;9.124;2023-05-07T08:14:13;19.90;99.90
2489;DHT22;1255;48.716;9.124;2023-05-07T08:16:41;19.90;99.90
2489;DHT22;1255;48.716;9.124;2023-05-07T08:19:09;19.90;99.90
2489;DHT22;1255;48.716;9.124;2023-05-07T08:21:39;20.00;99.90
2489;DHT22;1255;48.716;9.124;2023-05-07T08:24:06;20.10;99.90
2489;DHT22;1255;48.716;9.124;2023-05-07T08:26:32;20.40;99.90
2489;DHT22;1255;48.716;9.124;2023-05-07T08:29:01;20.60;99.90
2489;DHT22;1255;48.716;9.124;2023-05-07T08:31:28;20.80;99.90
2489;DHT22;1255;48.716;9.124;2023-05-07T08:33:54;20.90;99.90
2489;DHT22;1255;48.716;9.124;2023-05-07T08:36:22;21.00;99.90
2489;DHT22;1255;48.716;9.124;2023-05-07T08:38:49;21.30;99.90
2489;DHT22;1255;48.716;9.124;2023-05-07T08:41:16;21.60;99.90
2489;DHT22;1255;48.716;9.124;2023-05-07T08:43:46;21.90;99.90
2489;DHT22;1255;48.716;9.124;2023-05-07T08:46:17;22.10;99.90
2489;DHT22;1255;48.716;9.124;2023-05-07T08:48:44;22.20;99.90
2489;DHT22;1255;48.716;9.124;2023-05-07T08:51:12;22.50;99.90
2489;DHT22;1255;48.716;9.124;2023-05-07T08:53:42;22.80;99.90
2489;DHT22;1255;48.716;9.124;2023-05-07T08:56:09;22.80;99.90
2489;DHT22;1255;48.716;9.124;2023-05-07T08:58:36;23.10;99.90
2489;DHT22;1255;48.716;9.124;2023-05-07T09:01:07;23.30;99.90
2489;DHT22;1255;48.716;9.124;2023-05-07T09:03:35;23.30;99.90
2489;DHT22;1255;48.716;9.124;2023-05-07T09:06:03;23.40;99.90
2489;DHT22;1255;48.716;9.124;2023-05-07T09:08:32;23.70;99.90
2489;DHT22;1255;48.716;9.124;2023-05-07T09:11:00;24.00;99.90
2489;DHT22;1255;48.716;9.124;2023-05-07T09:13:28;24.10;99.90
2489;DHT22;1255;48.716;9.124;2023-05-07T09:15:55;24.60;99.90
2489;DHT22;1255;48.716;9.124;2023-05-07T09:18:23;25.10;99.90
2489;DHT22;1255;48.716;9.124;2023-05-07T09:20:50;25.30;99.90
2489;DHT22;1255;48.716;9.124;2023-05-07T09:23:17;25.50;99.90
2489;DHT22;1255;48.716;9.124;2023-05-07T09:25:44;25.10;99.90
2489;DHT22;1255;48.716;9.124;2023-05-07T09:28:12;25.00;99.90
2489;DHT22;1255;48.716;9.124;2023-05-07T09:30:39;25.40;99.90
2489;DHT22;1255;48.716;9.124;2023-05-07T09:33:05;25.80;99.90
2489;DHT22;1255;48.716;9.124;2023-05-07T09:35:32;26.20;99.90
2489;DHT22;1255;48.716;9.124;2023-05-07T09:38:00;26.10;99.90
2489;DHT22;1255;48.716;9.124;2023-05-07T09:40:28;26.00;99.90
2489;DHT22;1255;48.716;9.124;2023-05-07T09:42:55;26.30;99.90
2489;DHT22;1255;48.716;9.124;2023-05-07T09:45:24;26.50;99.90
2489;DHT22;1255;48.716;9.124;2023-05-07T09:47:55;26.90;99.90
2489;DHT22;1255;48.716;9.124;2023-05-07T09:50:26;27.20;99.90
2489;DHT22;1255;48.716;9.124;2023-05-07T09:52:54;27.30;99.90
2489;DHT22;1255;48.716;9.124;2023-05-07T09:55:21;27.40;99.90
2489;DHT22;1255;48.716;9.124;2023-05-07T09:57:50;27.20;99.90
2489;DHT22;1255;48.716;9.124;2023-05-07T10:00:18;27.10;99.20
2489;DHT22;1255;48.716;9.124;2023-05-07T10:02:49;27.50;99.60
2489;DHT22;1255;48.716;9.124;2023-05-07T10:05:17;27.50;99.50
2489;DHT22;1255;48.716;9.124;2023-05-07T10:07:45;27.60;99.20
2489;DHT22;1255;48.716;9.124;2023-05-07T10:10:12;27.70;99.10
2489;DHT22;1255;48.716;9.124;2023-05-07T10:12:41;28.00;99.90
2489;DHT22;1255;48.716;9.124;2023-05-07T10:15:11;28.30;99.70
2489;DHT22;1255;48.716;9.124;2023-05-07T10:17:40;28.50;98.90
2489;DHT22;1255;48.716;9.124;2023-05-07T10:20:08;28.80;98.20
2489;DHT22;1255;48.716;9.124;2023-05-07T10:22:39;28.70;97.90
2489;DHT22;1255;48.716;9.124;2023-05-07T10:25:14;28.50;96.40
2489;DHT22;1255;48.716;9.124;2023-05-07T10:27:43;28.10;97.90
2489;DHT22;1255;48.716;9.124;2023-05-07T10:30:15;28.60;98.90
2489;DHT22;1255;48.716;9.124;2023-05-07T10:32:48;28.90;97.90
2489;DHT22;1255;48.716;9.124;2023-05-07T10:35:21;29.20;98.00
2489;DHT22;1255;48.716;9.124;2023-05-07T10:37:49;29.40;96.90
2489;DHT22;1255;48.716;9.124;2023-05-07T10:40:16;29.80;97.10
2489;DHT22;1255;48.716;9.124;2023-05-07T10:42:55;30.10;94.20
2489;DHT22;1255;48.716;9.124;2023-05-07T10:45:23;30.30;96.60
2489;DHT22;1255;48.716;9.124;2023-05-07T10:48:07;30.50;96.80
2489;DHT22;1255;48.716;9.124;2023-05-07T10:50:37;30.70;95.40
2489;DHT22;1255;48.716;9.124;2023-05-07T10:53:24;30.90;94.40
2489;DHT22;1255;48.716;9.124;2023-05-07T10:58:51;30.40;92.40
2489;DHT22;1255;48.716;9.124;2023-05-07T11:01:49;30.60;93.00
2489;DHT22;1255;48.716;9.124;2023-05-07T11:04:17;30.60;93.60
2489;DHT22;1255;48.716;9.124;2023-05-07T11:07:25;30.80;92.80
2489;DHT22;1255;48.716;9.124;2023-05-07T11:10:02;31.00;93.30
2489;DHT22;1255;48.716;9.124;2023-05-07T11:12:49;30.80;92.60
2489;DHT22;1255;48.716;9.124;2023-05-07T11:15:35;30.60;92.70
2489;DHT22;1255;48.716;9.124;2023-05-07T11:18:02;30.60;91.70
2489;DHT22;1255;48.716;9.124;2023-05-07T11:21:00;30.20;92.60
2489;DHT22;1255;48.716;9.124;2023-05-07T11:23:58;29.90;92.00
2489;DHT22;1255;48.716;9.124;2023-05-07T11:26:26;29.20;92.50
2489;DHT22;1255;48.716;9.124;2023-05-07T11:28:53;28.90;94.00
2489;DHT22;1255;48.716;9.124;2023-05-07T11:31:22;28.50;94.00
2489;DHT22;1255;48.716;9.124;2023-05-07T11:33:52;28.10;94.20
2489;DHT22;1255;48.716;9.124;2023-05-07T11:36:19;27.50;94.90
2489;DHT22;1255;48.716;9.124;2023-05-07T11:38:47;27.00;94.50
2489;DHT22;1255;48.716;9.124;2023-05-07T11:41:16;26.70;95.50
2489;DHT22;1255;48.716;9.124;2023-05-07T11:43:55;26.50;95.60
2489;DHT22;1255;48.716;9.124;2023-05-07T11:46:22;26.30;95.90
2489;DHT22;1255;48.716;9.124;2023-05-07T11:48:49;26.30;97.00
2489;DHT22;1255;48.716;9.124;2023-05-07T11:51:19;26.10;96.50
2489;DHT22;1255;48.716;9.124;2023-05-07T11:53:46;25.90;97.10
2489;DHT22;1255;48.716;9.124;2023-05-07T11:56:15;25.80;96.60
2489;DHT22;1255;48.716;9.124;2023-05-07T11:58:42;25.60;96.90
2489;DHT22;1255;48.716;9.124;2023-05-07T12:01:11;25.40;96.80
2489;DHT22;1255;48.716;9.124;2023-05-07T12:03:39;25.00;97.30
2489;DHT22;1255;48.716;9.124;2023-05-07T12:06:08;24.90;99.10
2489;DHT22;1255;48.716;9.124;2023-05-07T12:08:36;24.50;99.60
2489;DHT22;1255;48.716;9.124;2023-05-07T12:11:04;24.00;99.90
2489;DHT22;1255;48.716;9.124;2023-05-07T12:13:34;23.30;99.90
2489;DHT22;1255;48.716;9.124;2023-05-07T12:16:01;22.60;99.90
2489;DHT22;1255;48.716;9.124;2023-05-07T12:18:29;22.30;99.90
2489;DHT22;1255;48.716;9.124;2023-05-07T12:20:56;21.90;99.90
2489;DHT22;1255;48.716;9.124;2023-05-07T12:23:23;21.60;99.90
2489;DHT22;1255;48.716;9.124;2023-05-07T12:25:50;21.30;99.90
2489;DHT22;1255;48.716;9.124;2023-05-07T12:28:18;21.10;99.90
2489;DHT22;1255;48.716;9.124;2023-05-07T12:30:48;20.80;99.90
2489;DHT22;1255;48.716;9.124;2023-05-07T12:33:16;20.40;99.90
2489;DHT22;1255;48.716;9.124;2023-05-07T12:35:43;20.10;99.90
2489;DHT22;1255;48.716;9.124;2023-05-07T12:38:12;19.90;99.90
2489;DHT22;1255;48.716;9.124;2023-05-07T12:40:40;19.70;99.90
2489;DHT22;1255;48.716;9.124;2023-05-07T12:43:07;19.50;99.90
2489;DHT22;1255;48.716;9.124;2023-05-07T12:45:37;19.40;99.90
2489;DHT22;1255;48.716;9.124;2023-05-07T12:48:06;19.30;99.90
2489;DHT22;1255;48.716;9.124;2023-05-07T12:50:33;19.20;99.90
2489;DHT22;1255;48.716;9.124;2023-05-07T12:53:00;19.10;99.90
2489;DHT22;1255;48.716;9.124;2023-05-07T12:55:31;18.90;99.90
2489;DHT22;1255;48.716;9.124;2023-05-07T12:58:01;18.80;99.90
2489;DHT22;1255;48.716;9.124;2023-05-07T13:00:35;18.80;99.90
2489;DHT22;1255;48.716;9.124;2023-05-07T13:03:02;18.40;99.90
2489;DHT22;1255;48.716;9.124;2023-05-07T13:05:30;18.30;99.90
2489;DHT22;1255;48.716;9.124;2023-05-07T13:07:57;18.10;99.90
2489;DHT22;1255;48.716;9.124;2023-05-07T13:10:25;17.90;99.90
2489;DHT22;1255;48.716;9.124;2023-05-07T13:12:51;17.70;99.90
2489;DHT22;1255;48.716;9.124;2023-05-07T13:15:18;17.60;99.90
2489;DHT22;1255;48.716;9.124;2023-05-07T13:17:45;17.30;99.90
2489;DHT22;1255;48.716;9.124;2023-05-07T13:20:12;17.20;99.90
2489;DHT22;1255;48.716;9.124;2023-05-07T13:22:40;17.00;99.90
2489;DHT22;1255;48.716;9.124;2023-05-07T13:25:08;16.80;99.90
2489;DHT22;1255;48.716;9.124;2023-05-07T13:27:35;16.70;99.90
2489;DHT22;1255;48.716;9.124;2023-05-07T13:30:03;16.60;99.90
2489;DHT22;1255;48.716;9.124;2023-05-07T13:32:30;16.50;99.90
2489;DHT22;1255;48.716;9.124;2023-05-07T13:34:56;16.40;99.90
2489;DHT22;1255;48.716;9.124;2023-05-07T13:37:23;16.40;99.90
2489;DHT22;1255;48.716;9.124;2023-05-07T13:39:51;16.40;99.90
2489;DHT22;1255;48.716;9.124;2023-05-07T13:42:18;16.40;99.90
2489;DHT22;1255;48.716;9.124;2023-05-07T13:44:45;16.40;99.90
2489;DHT22;1255;48.716;9.124;2023-05-07T13:47:13;16.30;99.90
2489;DHT22;1255;48.716;9.124;2023-05-07T13:49:39;16.20;99.90
2489;DHT22;1255;48.716;9.124;2023-05-07T13:52:06;16.00;99.90
2489;DHT22;1255;48.716;9.124;2023-05-07T13:54:33;15.90;99.90
2489;DHT22;1255;48.716;9.124;2023-05-07T13:57:01;15.70;99.90
2489;DHT22;1255;48.716;9.124;2023-05-07T13:59:28;15.60;99.90
2489;DHT22;1255;48.716;9.124;2023-05-07T14:01:54;15.40;99.90
2489;DHT22;1255;48.716;9.124;2023-05-07T14:04:21;15.30;99.90
2489;DHT22;1255;48.716;9.124;2023-05-07T14:06:48;15.20;99.90
2489;DHT22;1255;48.716;9.124;2023-05-07T14:09:14;15.10;99.90
2489;DHT22;1255;48.716;9.124;2023-05-07T14:11:41;15.00;99.90
2489;DHT22;1255;48.716;9.124;2023-05-07T14:14:09;15.00;99.90
2489;DHT22;1255;48.716;9.124;2023-05-07T14:16:37;14.90;99.90
2489;DHT22;1255;48.716;9.124;2023-05-07T14:19:03;14.80;99.90
2489;DHT22;1255;48.716;9.124;2023-05-07T14:21:30;14.80;99.90
2489;DHT22;1255;48.716;9.124;2023-05-07T14:23:57;14.70;99.90
2489;DHT22;1255;48.716;9.124;2023-05-07T14:26:25;14.70;99.90
2489;DHT22;1255;48.716;9.124;2023-05-07T14:28:53;14.80;99.90
2489;DHT22;1255;48.716;9.124;2023-05-07T14:31:24;14.70;99.90
2489;DHT22;1255;48.716;9.124;2023-05-07T14:33:51;14.80;99.90
2489;DHT22;1255;48.716;9.124;2023-05-07T14:36:18;14.70;99.90
2489;DHT22;1255;48.716;9.124;2023-05-07T14:38:46;14.60;99.90
2489;DHT22;1255;48.716;9.124;2023-05-07T14:41:13;14.60;99.90
2489;DHT22;1255;48.716;9.124;2023-05-07T14:43:40;14.60;99.90
2489;DHT22;1255;48.716;9.124;2023-05-07T14:46:07;14.60;99.90
2489;DHT22;1255;48.716;9.124;2023-05-07T14:48:35;14.60;99.90
2489;DHT22;1255;48.716;9.124;2023-05-07T14:51:01;14.70;99.90
2489;DHT22;1255;48.716;9.124;2023-05-07T14:53:28;14.80;99.90
2489;DHT22;1255;48.716;9.124;2023-05-07T14:55:55;14.90;99.90
2489;DHT22;1255;48.716;9.124;2023-05-07T14:58:21;15.00;99.90
2489;DHT22;1255;48.716;9.124;2023-05-07T15:00:48;15.10;99.90
2489;DHT22;1255;48.716;9.124;2023-05-07T15:03:15;15.20;99.90
2489;DHT22;1255;48.716;9.124;2023-05-07T15:05:43;15.30;99.90
2489;DHT22;1255;48.716;9.124;2023-05-07T15:08:10;15.50;99.90
2489;DHT22;1255;48.716;9.124;2023-05-07T15:10:39;15.60;99.90
2489;DHT22;1255;48.716;9.124;2023-05-07T15:13:07;15.70;99.90
2489;DHT22;1255;48.716;9.124;2023-05-07T15:15:33;15.80;99.90
2489;DHT22;1255;48.716;9.124;2023-05-07T15:18:00;15.80;99.90
2489;DHT22;1255;48.716;9.124;2023-05-07T15:20:27;15.90;99.90
2489;DHT22;1255;48.716;9.124;2023-05-07T15:22:55;16.00;99.90
2489;DHT22;1255;48.716;9.124;2023-05-07T15:25:22;16.10;99.90
2489;DHT22;1255;48.716;9.124;2023-05-07T15:27:49;16.20;99.90
2489;DHT22;1255;48.716;9.124;2023-05-07T15:30:16;16.20;99.90
2489;DHT22;1255;48.716;9.124;2023-05-07T15:32:45;16.30;99.90
2489;DHT22;1255;48.716;9.124;2023-05-07T15:35:12;16.40;99.90
2489;DHT22;1255;48.716;9.124;2023-05-07T15:37:39;16.50;99.90
2489;DHT22;1255;48.716;9.124;2023-05-07T15:40:08;16.50;99.90
2489;DHT22;1255;48.716;9.124;2023-05-07T15:42:36;16.60;99.90
2489;DHT22;1255;48.716;9.124;2023-05-07T15:45:03;16.60;99.90
2489;DHT22;1255;48.716;9.124;2023-05-07T15:47:32;16.50;99.90
2489;DHT22;1255;48.716;9.124;2023-05-07T15:49:59;16.50;99.90
2489;DHT22;1255;48.716;9.124;2023-05-07T15:52:26;16.60;99.90
2489;DHT22;1255;48.716;9.124;2023-05-07T15:54:53;16.60;99.90
2489;DHT22;1255;48.716;9.124;2023-05-07T15:57:22;16.70;99.90
2489;DHT22;1255;48.716;9.124;2023-05-07T15:59:48;16.80;99.90
2489;DHT22;1255;48.716;9.124;2023-05-07T16:02:15;16.80;99.90
2489;DHT22;1255;48.716;9.124;2023-05-07T16:04:42;16.90;99.90
2489;DHT22;1255;48.716;9.124;2023-05-07T16:07:09;16.90;99.90
2489;DHT22;1255;48.716;9.124;2023-05-07T16:09:36;17.00;99.90
2489;DHT22;1255;48.716;9.124;2023-05-07T16:12:03;17.00;99.90